sensor_id;sensor_type;location;lat;lon;timestamp;temperature;humidity
9125;DHT22;4597;48.730;9.114;2022-11-02T00:00:23;9.10;99.90
9125;DHT22;4597;48.730;9.114;2022-11-02T00:02:48;9.10;99.90
9125;DHT22;4597;48.730;9.114;2022-11-02T00:05:14;9.00;99.90
9125;DHT22;4597;48.730;9.114;2022-11-02T00:07:41;9.10;99.90
9125;DHT22;4597;48.730;9.114;2022-11-02T00:10:07;9.10;99.90
9125;DHT22;4597;48.730;9.114;2022-11-02T00:12:33;9.00;99.90
9125;DHT22;4597;48.730;9.114;2022-11-02T00:14:59;9.10;99.90
9125;DHT22;4597;48.730;9.114;2022-11-02T00:17:25;9.10;99.90
9125;DHT22;4597;48.730;9.114;2022-11-02T00:19:50;9.10;99.90
9125;DHT22;4597;48.730;9.114;2022-11-02T00:22:16;9.00;99.90
9125;DHT22;4597;48.730;9.114;2022-11-02T00:24:42;9.00;99.90
9125;DHT22;4597;48.730;9.114;2022-11-02T00:27:07;9.00;99.90
9125;DHT22;4597;48.730;9.114;2022-11-02T00:29:33;9.00;99.90
9125;DHT22;4597;48.730;9.114;2022-11-02T00:31:59;8.90;99.90
9125;DHT22;4597;48.730;9.114;2022-11-02T00:34:25;8.90;99.90
9125;DHT22;4597;48.730;9.114;2022-11-02T00:36:51;8.90;99.90
9125;DHT22;4597;48.730;9.114;2022-11-02T00:39:17;8.90;99.90
9125;DHT22;4597;48.730;9.114;2022-11-02T00:41:43;8.90;99.90
9125;DHT22;4597;48.730;9.114;2022-11-02T00:44:08;8.90;99.90
9125;DHT22;4597;48.730;9.114;2022-11-02T00:46:34;8.90;99.90
9125;DHT22;4597;48.730;9.114;2022-11-02T00:48:59;8.90;99.90
9125;DHT22;4597;48.730;9.114;2022-11-02T00:51:25;9.00;99.90
9125;DHT22;4597;48.730;9.114;2022-11-02T00:53:51;9.00;99.90
9125;DHT22;4597;48.730;9.114;2022-11-02T00:56:16;9.00;99.90
9125;DHT22;4597;48.730;9.114;2022-11-02T00:58:42;9.00;99.90
9125;DHT22;4597;48.730;9.114;2022-11-02T01:01:07;9.00;99.90
9125;DHT22;4597;48.730;9.114;2022-11-02T01:03:33;9.00;99.90
9125;DHT22;4597;48.730;9.114;2022-11-02T01:05:59;9.00;99.90
9125;DHT22;4597;48.730;9.114;2022-11-02T01:08:31;9.00;99.90
9125;DHT22;4597;48.730;9.114;2022-11-02T01:11:18;9.00;99.90
9125;DHT22;4597;48.730;9.114;2022-11-02T01:13:44;9.00;99.90
9125;DHT22;4597;48.730;9.114;2022-11-02T01:16:10;9.00;99.90
9125;DHT22;4597;48.730;9.114;2022-11-02T01:18:36;9.10;99.90
9125;DHT22;4597;48.730;9.114;2022-11-02T01:21:01;9.10;99.90
9125;DHT22;4597;48.730;9.114;2022-11-02T01:23:29;9.10;99.90
9125;DHT22;4597;48.730;9.114;2022-11-02T01:25:55;9.10;99.90
9125;DHT22;4597;48.730;9.114;2022-11-02T01:28:20;9.10;99.90
9125;DHT22;4597;48.730;9.114;2022-11-02T01:30:46;9.20;99.90
9125;DHT22;4597;48.730;9.114;2022-11-02T01:33:12;9.20;99.90
9125;DHT22;4597;48.730;9.114;2022-11-02T01:35:38;9.20;99.90
9125;DHT22;4597;48.730;9.114;2022-11-02T01:38:03;9.30;99.90
9125;DHT22;4597;48.730;9.114;2022-11-02T01:40:36;9.30;99.90
9125;DHT22;4597;48.730;9.114;2022-11-02T01:43:23;9.30;99.90
9125;DHT22;4597;48.730;9.114;2022-11-02T01:46:05;9.20;99.90
9125;DHT22;4597;48.730;9.114;2022-11-02T01:48:34;9.20;99.90
9125;DHT22;4597;48.730;9.114;2022-11-02T01:51:04;9.30;99.90
9125;DHT22;4597;48.730;9.114;2022-11-02T01:53:32;9.30;99.90
9125;DHT22;4597;48.730;9.114;2022-11-02T01:55:59;9.30;99.90
9125;DHT22;4597;48.730;9.114;2022-11-02T01:58:26;9.40;99.90
9125;DHT22;4597;48.730;9.114;2022-11-02T02:00:51;9.40;99.90
9125;DHT22;4597;48.730;9.114;2022-11-02T02:03:18;9.30;99.90
9125;DHT22;4597;48.730;9.114;2022-11-02T02:05:55;9.40;99.90
9125;DHT22;4597;48.730;9.114;2022-11-02T02:08:23;9.40;99.90
9125;DHT22;4597;48.730;9.114;2022-11-02T02:10:50;9.30;99.90
9125;DHT22;4597;48.730;9.114;2022-11-02T02:13:16;9.30;99.90
9125;DHT22;4597;48.730;9.114;2022-11-02T02:16:09;9.30;99.90
9125;DHT22;4597;48.730;9.114;2022-11-02T02:18:45;9.30;99.90
9125;DHT22;4597;48.730;9.114;2022-11-02T02:24:10;9.30;99.90
9125;DHT22;4597;48.730;9.114;2022-11-02T02:26:54;9.30;99.90
9125;DHT22;4597;48.730;9.114;2022-11-02T02:29:47;9.30;99.90
9125;DHT22;4597;48.730;9.114;2022-11-02T02:32:37;9.30;99.90
9125;DHT22;4597;48.730;9.114;2022-11-02T02:35:23;9.40;99.90
9125;DHT22;4597;48.730;9.114;2022-11-02T02:38:00;9.40;99.90
9125;DHT22;4597;48.730;9.114;2022-11-02T02:40:46;9.40;99.90
9125;DHT22;4597;48.730;9.114;2022-11-02T02:43:24;9.40;99.90
9125;DHT22;4597;48.730;9.114;2022-11-02T02:46:07;9.40;99.90
9125;DHT22;4597;48.730;9.114;2022-11-02T02:48:35;9.50;99.90
9125;DHT22;4597;48.730;9.114;2022-11-02T02:51:05;9.50;99.90
9125;DHT22;4597;48.730;9.114;2022-11-02T02:53:41;9.50;99.90
9125;DHT22;4597;48.730;9.114;2022-11-02T02:56:08;9.50;99.90
9125;DHT22;4597;48.730;9.114;2022-11-02T02:58:41;9.50;99.90
9125;DHT22;4597;48.730;9.114;2022-11-02T03:01:11;9.50;99.90
9125;DHT22;4597;48.730;9.114;2022-11-02T03:03:40;9.50;99.90
9125;DHT22;4597;48.730;9.114;2022-11-02T03:06:23;9.50;99.90
9125;DHT22;4597;48.730;9.114;2022-11-02T03:12:49;9.50;99.90
9125;DHT22;4597;48.730;9.114;2022-11-02T03:17:31;9.50;99.90
9125;DHT22;4597;48.730;9.114;2022-11-02T03:20:16;9.50;99.90
9125;DHT22;4597;48.730;9.114;2022-11-02T03:25:27;9.60;99.90
9125;DHT22;4597;48.730;9.114;2022-11-02T03:28:06;9.60;99.90
9125;DHT22;4597;48.730;9.114;2022-11-02T03:30:41;9.70;99.90
9125;DHT22;4597;48.730;9.114;2022-11-02T03:33:21;9.70;99.90
9125;DHT22;4597;48.730;9.114;2022-11-02T03:38:22;9.70;99.90
9125;DHT22;4597;48.730;9.114;2022-11-02T03:40:51;9.70;99.90
9125;DHT22;4597;48.730;9.114;2022-11-02T03:43:19;9.70;99.90
9125;DHT22;4597;48.730;9.114;2022-11-02T03:45:49;9.70;99.90
9125;DHT22;4597;48.730;9.114;2022-11-02T03:48:17;9.70;99.90
9125;DHT22;4597;48.730;9.114;2022-11-02T03:50:47;9.70;99.90
9125;DHT22;4597;48.730;9.114;2022-11-02T03:53:36;9.70;99.90
9125;DHT22;4597;48.730;9.114;2022-11-02T03:56:09;9.70;99.90
9125;DHT22;4597;48.730;9.114;2022-11-02T03:58:36;9.70;99.90
9125;DHT22;4597;48.730;9.114;2022-11-02T04:01:04;9.60;99.90
9125;DHT22;4597;48.730;9.114;2022-11-02T04:03:33;9.60;99.90
9125;DHT22;4597;48.730;9.114;2022-11-02T04:06:00;9.60;99.90
9125;DHT22;4597;48.730;9.114;2022-11-02T04:08:31;9.60;99.90
9125;DHT22;4597;48.730;9.114;2022-11-02T04:10:58;9.50;99.90
9125;DHT22;4597;48.730;9.114;2022-11-02T04:13:42;9.50;99.90
9125;DHT22;4597;48.730;9.114;2022-11-02T04:16:26;9.50;99.90
9125;DHT22;4597;48.730;9.114;2022-11-02T04:18:52;9.50;99.90
9125;DHT22;4597;48.730;9.114;2022-11-02T04:21:36;9.40;99.90
9125;DHT22;4597;48.730;9.114;2022-11-02T04:24:02;9.40;99.90
9125;DHT22;4597;48.730;9.114;2022-11-02T04:26:46;9.40;99.90
9125;DHT22;4597;48.730;9.114;2022-11-02T04:29:11;9.40;99.90
9125;DHT22;4597;48.730;9.114;2022-11-02T04:31:37;9.40;99.90
9125;DHT22;4597;48.730;9.114;2022-11-02T04:34:02;9.40;99.90
9125;DHT22;4597;48.730;9.114;2022-11-02T04:36:29;9.30;99.90
9125;DHT22;4597;48.730;9.114;2022-11-02T04:38:55;9.30;99.90
9125;DHT22;4597;48.730;9.114;2022-11-02T04:41:21;9.30;99.90
9125;DHT22;4597;48.730;9.114;2022-11-02T04:44:06;9.30;99.90
9125;DHT22;4597;48.730;9.114;2022-11-02T04:46:33;9.30;99.90
9125;DHT22;4597;48.730;9.114;2022-11-02T04:48:59;9.30;99.90
9125;DHT22;4597;48.730;9.114;2022-11-02T04:51:26;9.30;99.90
9125;DHT22;4597;48.730;9.114;2022-11-02T04:56:20;9.20;99.90
9125;DHT22;4597;48.730;9.114;2022-11-02T04:58:50;9.20;99.90
9125;DHT22;4597;48.730;9.114;2022-11-02T05:01:17;9.20;99.90
9125;DHT22;4597;48.730;9.114;2022-11-02T05:03:45;9.10;99.90
9125;DHT22;4597;48.730;9.114;2022-11-02T05:06:11;9.10;99.90
9125;DHT22;4597;48.730;9.114;2022-11-02T05:08:37;9.10;99.90
9125;DHT22;4597;48.730;9.114;2022-11-02T05:11:03;9.10;99.90
9125;DHT22;4597;48.730;9.114;2022-11-02T05:13:29;9.10;99.90
9125;DHT22;4597;48.730;9.114;2022-11-02T05:15:55;9.20;99.90
9125;DHT22;4597;48.730;9.114;2022-11-02T05:18:22;9.20;99.90
9125;DHT22;4597;48.730;9.114;2022-11-02T05:20:52;9.30;99.90
9125;DHT22;4597;48.730;9.114;2022-11-02T05:23:18;9.40;99.90
9125;DHT22;4597;48.730;9.114;2022-11-02T05:25:55;9.50;99.90
9125;DHT22;4597;48.730;9.114;2022-11-02T05:28:21;9.50;99.90
9125;DHT22;4597;48.730;9.114;2022-11-02T05:30:46;9.60;99.90
9125;DHT22;4597;48.730;9.114;2022-11-02T05:33:12;9.70;99.90
9125;DHT22;4597;48.730;9.114;2022-11-02T05:35:37;9.70;99.90
9125;DHT22;4597;48.730;9.114;2022-11-02T05:38:03;9.80;99.90
9125;DHT22;4597;48.730;9.114;2022-11-02T05:40:28;9.80;99.90
9125;DHT22;4597;48.730;9.114;2022-11-02T05:43:00;9.90;99.90
9125;DHT22;4597;48.730;9.114;2022-11-02T05:45:26;9.90;99.90
9125;DHT22;4597;48.730;9.114;2022-11-02T05:47:52;9.90;99.90
9125;DHT22;4597;48.730;9.114;2022-11-02T05:50:18;9.90;99.90
9125;DHT22;4597;48.730;9.114;2022-11-02T05:52:43;10.00;99.90
9125;DHT22;4597;48.730;9.114;2022-11-02T05:55:09;10.00;99.90
9125;DHT22;4597;48.730;9.114;2022-11-02T05:57:34;10.00;99.90
9125;DHT22;4597;48.730;9.114;2022-11-02T06:00:01;10.10;99.90
9125;DHT22;4597;48.730;9.114;2022-11-02T06:02:26;10.10;99.90
9125;DHT22;4597;48.730;9.114;2022-11-02T06:04:52;10.20;99.90
9125;DHT22;4597;48.730;9.114;2022-11-02T06:07:17;10.40;99.90
9125;DHT22;4597;48.730;9.114;2022-11-02T06:09:43;10.50;99.90
9125;DHT22;4597;48.730;9.114;2022-11-02T06:12:08;10.50;99.90
9125;DHT22;4597;48.730;9.114;2022-11-02T06:14:34;10.50;99.90
9125;DHT22;4597;48.730;9.114;2022-11-02T06:16:59;10.50;99.90
9125;DHT22;4597;48.730;9.114;2022-11-02T06:19:25;10.50;99.90
9125;DHT22;4597;48.730;9.114;2022-11-02T06:21:50;10.50;99.90
9125;DHT22;4597;48.730;9.114;2022-11-02T06:24:16;10.50;99.90
9125;DHT22;4597;48.730;9.114;2022-11-02T06:26:41;10.50;99.90
9125;DHT22;4597;48.730;9.114;2022-11-02T06:29:07;10.50;99.90
9125;DHT22;4597;48.730;9.114;2022-11-02T06:31:32;10.50;99.90
9125;DHT22;4597;48.730;9.114;2022-11-02T06:33:58;10.60;99.90
9125;DHT22;4597;48.730;9.114;2022-11-02T06:36:23;10.50;99.90
9125;DHT22;4597;48.730;9.114;2022-11-02T06:38:49;10.50;99.90
9125;DHT22;4597;48.730;9.114;2022-11-02T06:41:15;10.60;99.90
9125;DHT22;4597;48.730;9.114;2022-11-02T06:43:41;10.60;99.90
9125;DHT22;4597;48.730;9.114;2022-11-02T06:46:06;10.60;99.90
9125;DHT22;4597;48.730;9.114;2022-11-02T06:48:32;10.60;99.90
9125;DHT22;4597;48.730;9.114;2022-11-02T06:50:58;10.60;99.90
9125;DHT22;4597;48.730;9.114;2022-11-02T06:53:23;10.60;99.90
9125;DHT22;4597;48.730;9.114;2022-11-02T06:55:53;10.70;99.90
9125;DHT22;4597;48.730;9.114;2022-11-02T06:58:19;10.70;99.90
9125;DHT22;4597;48.730;9.114;2022-11-02T07:00:46;10.70;99.90
9125;DHT22;4597;48.730;9.114;2022-11-02T07:03:12;10.70;99.90
9125;DHT22;4597;48.730;9.114;2022-11-02T07:05:37;10.70;99.90
9125;DHT22;4597;48.730;9.114;2022-11-02T07:08:03;10.80;99.90
9125;DHT22;4597;48.730;9.114;2022-11-02T07:10:29;10.80;99.90
9125;DHT22;4597;48.730;9.114;2022-11-02T07:12:56;10.80;99.90
9125;DHT22;4597;48.730;9.114;2022-11-02T07:15:23;10.80;99.90
9125;DHT22;4597;48.730;9.114;2022-11-02T07:17:49;10.80;99.90
9125;DHT22;4597;48.730;9.114;2022-11-02T07:20:15;10.90;99.90
9125;DHT22;4597;48.730;9.114;2022-11-02T07:22:40;10.90;99.90
9125;DHT22;4597;48.730;9.114;2022-11-02T07:25:06;11.00;99.90
9125;DHT22;4597;48.730;9.114;2022-11-02T07:27:38;11.00;99.90
9125;DHT22;4597;48.730;9.114;2022-11-02T07:30:04;11.10;99.90
9125;DHT22;4597;48.730;9.114;2022-11-02T07:32:30;11.10;99.90
9125;DHT22;4597;48.730;9.114;2022-11-02T07:35:02;11.10;99.90
9125;DHT22;4597;48.730;9.114;2022-11-02T07:37:28;11.20;99.90
9125;DHT22;4597;48.730;9.114;2022-11-02T07:39:53;11.20;99.90
9125;DHT22;4597;48.730;9.114;2022-11-02T07:42:19;11.30;99.90
9125;DHT22;4597;48.730;9.114;2022-11-02T07:44:44;11.40;99.90
9125;DHT22;4597;48.730;9.114;2022-11-02T07:47:10;11.50;99.90
9125;DHT22;4597;48.730;9.114;2022-11-02T07:49:35;11.50;99.90
9125;DHT22;4597;48.730;9.114;2022-11-02T07:52:01;11.60;99.90
9125;DHT22;4597;48.730;9.114;2022-11-02T07:54:26;11.70;99.90
9125;DHT22;4597;48.730;9.114;2022-11-02T07:56:52;11.70;99.90
9125;DHT22;4597;48.730;9.114;2022-11-02T07:59:18;11.80;99.90
9125;DHT22;4597;48.730;9.114;2022-11-02T08:01:43;11.90;99.90
9125;DHT22;4597;48.730;9.114;2022-11-02T08:04:09;11.90;99.90
9125;DHT22;4597;48.730;9.114;2022-11-02T08:06:34;11.90;99.90
9125;DHT22;4597;48.730;9.114;2022-11-02T08:09:00;11.90;99.90
9125;DHT22;4597;48.730;9.114;2022-11-02T08:11:27;11.80;99.90
9125;DHT22;4597;48.730;9.114;2022-11-02T08:13:52;11.90;99.90
9125;DHT22;4597;48.730;9.114;2022-11-02T08:16:18;11.90;99.90
9125;DHT22;4597;48.730;9.114;2022-11-02T08:18:43;11.80;99.90
9125;DHT22;4597;48.730;9.114;2022-11-02T08:21:09;12.00;99.90
9125;DHT22;4597;48.730;9.114;2022-11-02T08:23:34;12.10;99.90
9125;DHT22;4597;48.730;9.114;2022-11-02T08:26:00;12.10;99.90
9125;DHT22;4597;48.730;9.114;2022-11-02T08:28:28;12.20;99.90
9125;DHT22;4597;48.730;9.114;2022-11-02T08:30:57;12.20;99.90
9125;DHT22;4597;48.730;9.114;2022-11-02T08:33:23;12.20;99.90
9125;DHT22;4597;48.730;9.114;2022-11-02T08:35:49;12.20;99.90
9125;DHT22;4597;48.730;9.114;2022-11-02T08:38:15;12.30;99.90
9125;DHT22;4597;48.730;9.114;2022-11-02T08:40:41;12.30;99.90
9125;DHT22;4597;48.730;9.114;2022-11-02T08:43:09;12.40;99.90
9125;DHT22;4597;48.730;9.114;2022-11-02T08:45:36;12.50;99.90
9125;DHT22;4597;48.730;9.114;2022-11-02T08:48:03;12.50;99.90
9125;DHT22;4597;48.730;9.114;2022-11-02T08:50:28;12.50;99.90
9125;DHT22;4597;48.730;9.114;2022-11-02T08:52:54;12.60;99.90
9125;DHT22;4597;48.730;9.114;2022-11-02T08:55:19;12.60;99.90
9125;DHT22;4597;48.730;9.114;2022-11-02T08:57:50;12.70;99.90
9125;DHT22;4597;48.730;9.114;2022-11-02T09:00:18;12.70;99.90
9125;DHT22;4597;48.730;9.114;2022-11-02T09:02:56;12.70;99.90
9125;DHT22;4597;48.730;9.114;2022-11-02T09:05:21;12.80;99.90
9125;DHT22;4597;48.730;9.114;2022-11-02T09:07:47;12.80;99.90
9125;DHT22;4597;48.730;9.114;2022-11-02T09:10:12;12.90;99.90
9125;DHT22;4597;48.730;9.114;2022-11-02T09:12:38;12.90;99.90
9125;DHT22;4597;48.730;9.114;2022-11-02T09:15:04;12.90;99.90
9125;DHT22;4597;48.730;9.114;2022-11-02T09:17:29;12.90;99.90
9125;DHT22;4597;48.730;9.114;2022-11-02T09:19:55;13.00;99.90
9125;DHT22;4597;48.730;9.114;2022-11-02T09:22:20;13.00;99.90
9125;DHT22;4597;48.730;9.114;2022-11-02T09:24:46;13.00;99.90
9125;DHT22;4597;48.730;9.114;2022-11-02T09:27:11;13.00;99.90
9125;DHT22;4597;48.730;9.114;2022-11-02T09:29:37;13.00;99.90
9125;DHT22;4597;48.730;9.114;2022-11-02T09:32:02;13.10;99.90
9125;DHT22;4597;48.730;9.114;2022-11-02T09:34:28;13.00;99.90
9125;DHT22;4597;48.730;9.114;2022-11-02T09:36:53;13.10;99.90
9125;DHT22;4597;48.730;9.114;2022-11-02T09:39:19;13.10;99.90
9125;DHT22;4597;48.730;9.114;2022-11-02T09:42:19;13.10;99.90
9125;DHT22;4597;48.730;9.114;2022-11-02T09:45:00;13.10;99.90
9125;DHT22;4597;48.730;9.114;2022-11-02T09:47:27;13.10;99.90
9125;DHT22;4597;48.730;9.114;2022-11-02T09:49:55;13.10;99.90
9125;DHT22;4597;48.730;9.114;2022-11-02T09:52:52;13.10;99.90
9125;DHT22;4597;48.730;9.114;2022-11-02T09:55:23;13.10;99.90
9125;DHT22;4597;48.730;9.114;2022-11-02T09:57:58;13.10;99.90
9125;DHT22;4597;48.730;9.114;2022-11-02T10:00:27;13.10;99.90
9125;DHT22;4597;48.730;9.114;2022-11-02T10:03:01;13.10;99.90
9125;DHT22;4597;48.730;9.114;2022-11-02T10:05:50;13.10;99.90
9125;DHT22;4597;48.730;9.114;2022-11-02T10:13:52;13.10;99.90
9125;DHT22;4597;48.730;9.114;2022-11-02T10:16:29;13.10;99.90
9125;DHT22;4597;48.730;9.114;2022-11-02T10:18:58;13.20;99.90
9125;DHT22;4597;48.730;9.114;2022-11-02T10:21:33;13.10;99.90
9125;DHT22;4597;48.730;9.114;2022-11-02T10:24:33;13.10;99.90
9125;DHT22;4597;48.730;9.114;2022-11-02T10:27:03;13.10;99.90
9125;DHT22;4597;48.730;9.114;2022-11-02T10:32:18;13.10;99.90
9125;DHT22;4597;48.730;9.114;2022-11-02T10:34:44;13.10;99.90
9125;DHT22;4597;48.730;9.114;2022-11-02T10:37:46;13.10;99.90
9125;DHT22;4597;48.730;9.114;2022-11-02T10:48:50;13.30;99.90
9125;DHT22;4597;48.730;9.114;2022-11-02T10:51:20;13.20;99.90
9125;DHT22;4597;48.730;9.114;2022-11-02T10:53:48;13.30;99.90
9125;DHT22;4597;48.730;9.114;2022-11-02T10:56:23;13.20;99.90
9125;DHT22;4597;48.730;9.114;2022-11-02T11:01:20;13.30;99.90
9125;DHT22;4597;48.730;9.114;2022-11-02T11:04:09;13.30;99.90
9125;DHT22;4597;48.730;9.114;2022-11-02T11:06:43;13.20;99.90
9125;DHT22;4597;48.730;9.114;2022-11-02T11:09:17;13.30;99.90
9125;DHT22;4597;48.730;9.114;2022-11-02T11:12:00;13.30;99.90
9125;DHT22;4597;48.730;9.114;2022-11-02T11:14:35;13.40;99.90
9125;DHT22;4597;48.730;9.114;2022-11-02T11:17:35;13.50;99.90
9125;DHT22;4597;48.730;9.114;2022-11-02T11:19:58;13.60;99.90
9125;DHT22;4597;48.730;9.114;2022-11-02T11:27:47;13.70;99.90
9125;DHT22;4597;48.730;9.114;2022-11-02T11:30:42;13.80;99.90
9125;DHT22;4597;48.730;9.114;2022-11-02T11:33:16;13.80;99.90
9125;DHT22;4597;48.730;9.114;2022-11-02T11:35:48;13.90;99.90
9125;DHT22;4597;48.730;9.114;2022-11-02T11:38:17;14.00;99.90
9125;DHT22;4597;48.730;9.114;2022-11-02T11:40:45;14.00;99.90
9125;DHT22;4597;48.730;9.114;2022-11-02T11:43:15;14.10;99.90
9125;DHT22;4597;48.730;9.114;2022-11-02T11:46:02;14.10;99.90
9125;DHT22;4597;48.730;9.114;2022-11-02T11:51:02;14.30;99.90
9125;DHT22;4597;48.730;9.114;2022-11-02T11:53:28;14.20;99.90
9125;DHT22;4597;48.730;9.114;2022-11-02T11:55:56;14.20;99.90
9125;DHT22;4597;48.730;9.114;2022-11-02T11:58:29;14.20;99.90
9125;DHT22;4597;48.730;9.114;2022-11-02T12:03:53;14.40;99.90
9125;DHT22;4597;48.730;9.114;2022-11-02T12:06:30;14.50;99.90
9125;DHT22;4597;48.730;9.114;2022-11-02T12:09:30;14.50;99.90
9125;DHT22;4597;48.730;9.114;2022-11-02T12:12:13;14.60;99.90
9125;DHT22;4597;48.730;9.114;2022-11-02T12:14:52;14.60;99.90
9125;DHT22;4597;48.730;9.114;2022-11-02T12:31:24;14.80;99.90
9125;DHT22;4597;48.730;9.114;2022-11-02T12:36:48;14.90;99.90
9125;DHT22;4597;48.730;9.114;2022-11-02T12:40:13;14.90;99.90
9125;DHT22;4597;48.730;9.114;2022-11-02T12:42:46;15.10;99.90
9125;DHT22;4597;48.730;9.114;2022-11-02T12:45:30;15.10;99.90
9125;DHT22;4597;48.730;9.114;2022-11-02T12:47:59;15.10;99.90
9125;DHT22;4597;48.730;9.114;2022-11-02T12:55:53;15.50;99.90
9125;DHT22;4597;48.730;9.114;2022-11-02T12:58:25;15.50;99.90
9125;DHT22;4597;48.730;9.114;2022-11-02T13:01:04;15.60;99.90
9125;DHT22;4597;48.730;9.114;2022-11-02T13:03:54;15.80;99.90
9125;DHT22;4597;48.730;9.114;2022-11-02T13:06:25;15.90;99.90
9125;DHT22;4597;48.730;9.114;2022-11-02T13:09:33;15.90;99.90
9125;DHT22;4597;48.730;9.114;2022-11-02T13:12:06;16.00;99.90
9125;DHT22;4597;48.730;9.114;2022-11-02T13:14:42;16.00;99.90
9125;DHT22;4597;48.730;9.114;2022-11-02T13:17:36;16.10;99.90
9125;DHT22;4597;48.730;9.114;2022-11-02T13:23:37;16.50;99.60
9125;DHT22;4597;48.730;9.114;2022-11-02T13:25:49;16.50;99.40
9125;DHT22;4597;48.730;9.114;2022-11-02T13:28:41;16.70;99.50
9125;DHT22;4597;48.730;9.114;2022-11-02T13:31:20;16.80;98.00
9125;DHT22;4597;48.730;9.114;2022-11-02T13:33:51;16.80;95.30
9125;DHT22;4597;48.730;9.114;2022-11-02T13:36:18;16.70;94.70
9125;DHT22;4597;48.730;9.114;2022-11-02T13:39:01;16.80;96.00
9125;DHT22;4597;48.730;9.114;2022-11-02T13:41:54;16.90;95.50
9125;DHT22;4597;48.730;9.114;2022-11-02T13:49:57;17.00;94.00
9125;DHT22;4597;48.730;9.114;2022-11-02T13:52:38;17.00;93.80
9125;DHT22;4597;48.730;9.114;2022-11-02T13:55:07;17.00;93.20
9125;DHT22;4597;48.730;9.114;2022-11-02T13:57:37;17.10;93.80
9125;DHT22;4597;48.730;9.114;2022-11-02T14:00:07;17.20;93.40
9125;DHT22;4597;48.730;9.114;2022-11-02T14:08:20;17.40;92.70
9125;DHT22;4597;48.730;9.114;2022-11-02T14:11:03;17.60;92.30
9125;DHT22;4597;48.730;9.114;2022-11-02T14:19:21;17.80;91.40
9125;DHT22;4597;48.730;9.114;2022-11-02T14:48:49;17.80;83.00
9125;DHT22;4597;48.730;9.114;2022-11-02T14:51:23;17.90;82.30
9125;DHT22;4597;48.730;9.114;2022-11-02T14:54:16;18.00;82.40
9125;DHT22;4597;48.730;9.114;2022-11-02T14:57:02;17.80;80.20
9125;DHT22;4597;48.730;9.114;2022-11-02T14:59:35;17.60;81.70
9125;DHT22;4597;48.730;9.114;2022-11-02T15:02:14;17.60;80.70
9125;DHT22;4597;48.730;9.114;2022-11-02T15:04:51;17.60;81.90
9125;DHT22;4597;48.730;9.114;2022-11-02T15:07:36;17.40;82.60
9125;DHT22;4597;48.730;9.114;2022-11-02T15:12:42;17.00;85.20
9125;DHT22;4597;48.730;9.114;2022-11-02T15:15:33;17.00;86.40
9125;DHT22;4597;48.730;9.114;2022-11-02T15:23:43;16.80;91.70
9125;DHT22;4597;48.730;9.114;2022-11-02T15:26:15;16.70;93.00
9125;DHT22;4597;48.730;9.114;2022-11-02T15:28:43;16.60;92.10
9125;DHT22;4597;48.730;9.114;2022-11-02T15:31:17;16.60;93.50
9125;DHT22;4597;48.730;9.114;2022-11-02T15:33:46;16.60;96.50
9125;DHT22;4597;48.730;9.114;2022-11-02T15:36:16;16.60;97.40
9125;DHT22;4597;48.730;9.114;2022-11-02T15:38:50;16.50;96.90
9125;DHT22;4597;48.730;9.114;2022-11-02T15:41:40;16.30;97.40
9125;DHT22;4597;48.730;9.114;2022-11-02T15:55:24;15.40;99.90
9125;DHT22;4597;48.730;9.114;2022-11-02T15:58:13;15.10;99.90
9125;DHT22;4597;48.730;9.114;2022-11-02T16:00:42;14.90;99.90
9125;DHT22;4597;48.730;9.114;2022-11-02T16:03:08;14.70;99.90
9125;DHT22;4597;48.730;9.114;2022-11-02T16:08:03;14.30;99.90
9125;DHT22;4597;48.730;9.114;2022-11-02T16:10:31;14.20;99.90
9125;DHT22;4597;48.730;9.114;2022-11-02T16:13:22;14.10;99.90
9125;DHT22;4597;48.730;9.114;2022-11-02T16:15:48;13.90;99.90
9125;DHT22;4597;48.730;9.114;2022-11-02T16:18:50;13.80;99.90
9125;DHT22;4597;48.730;9.114;2022-11-02T16:21:18;13.70;99.90
9125;DHT22;4597;48.730;9.114;2022-11-02T16:23:56;13.50;99.90
9125;DHT22;4597;48.730;9.114;2022-11-02T16:26:25;13.30;99.90
9125;DHT22;4597;48.730;9.114;2022-11-02T16:28:53;13.30;99.90
9125;DHT22;4597;48.730;9.114;2022-11-02T16:31:27;13.20;99.90
9125;DHT22;4597;48.730;9.114;2022-11-02T16:33:58;13.10;99.90
9125;DHT22;4597;48.730;9.114;2022-11-02T16:41:30;12.90;99.90
9125;DHT22;4597;48.730;9.114;2022-11-02T16:43:59;12.80;99.90
9125;DHT22;4597;48.730;9.114;2022-11-02T16:49:19;12.70;99.90
9125;DHT22;4597;48.730;9.114;2022-11-02T16:51:52;12.60;99.90
9125;DHT22;4597;48.730;9.114;2022-11-02T16:56:56;12.50;99.90
9125;DHT22;4597;48.730;9.114;2022-11-02T16:59:23;12.40;99.90
9125;DHT22;4597;48.730;9.114;2022-11-02T17:01:49;12.40;99.90
9125;DHT22;4597;48.730;9.114;2022-11-02T17:04:28;12.30;99.90
9125;DHT22;4597;48.730;9.114;2022-11-02T17:06:57;12.20;99.90
9125;DHT22;4597;48.730;9.114;2022-11-02T17:09:31;12.10;99.90
9125;DHT22;4597;48.730;9.114;2022-11-02T17:12:03;12.00;99.90
9125;DHT22;4597;48.730;9.114;2022-11-02T17:14:30;12.00;99.90
9125;DHT22;4597;48.730;9.114;2022-11-02T17:17:08;11.90;99.90
9125;DHT22;4597;48.730;9.114;2022-11-02T17:22:57;11.90;99.90
9125;DHT22;4597;48.730;9.114;2022-11-02T17:25:28;11.90;99.90
9125;DHT22;4597;48.730;9.114;2022-11-02T17:27:56;11.80;99.90
9125;DHT22;4597;48.730;9.114;2022-11-02T17:35:48;11.50;99.90
9125;DHT22;4597;48.730;9.114;2022-11-02T17:38:14;11.40;99.90
9125;DHT22;4597;48.730;9.114;2022-11-02T17:40:41;11.40;99.90
9125;DHT22;4597;48.730;9.114;2022-11-02T17:43:06;11.30;99.90
9125;DHT22;4597;48.730;9.114;2022-11-02T17:45:34;11.30;99.90
9125;DHT22;4597;48.730;9.114;2022-11-02T17:48:02;11.20;99.90
9125;DHT22;4597;48.730;9.114;2022-11-02T17:50:29;11.20;99.90
9125;DHT22;4597;48.730;9.114;2022-11-02T17:52:56;11.20;99.90
9125;DHT22;4597;48.730;9.114;2022-11-02T17:55:27;11.10;99.90
9125;DHT22;4597;48.730;9.114;2022-11-02T17:57:54;11.10;99.90
9125;DHT22;4597;48.730;9.114;2022-11-02T18:00:20;11.10;99.90
9125;DHT22;4597;48.730;9.114;2022-11-02T18:02:49;11.00;99.90
9125;DHT22;4597;48.730;9.114;2022-11-02T18:05:32;10.90;99.90
9125;DHT22;4597;48.730;9.114;2022-11-02T18:07:58;10.80;99.90
9125;DHT22;4597;48.730;9.114;2022-11-02T18:10:31;10.70;99.90
9125;DHT22;4597;48.730;9.114;2022-11-02T18:12:57;10.70;99.90
9125;DHT22;4597;48.730;9.114;2022-11-02T18:15:25;10.70;99.90
9125;DHT22;4597;48.730;9.114;2022-11-02T18:17:51;10.60;99.90
9125;DHT22;4597;48.730;9.114;2022-11-02T18:20:18;10.50;99.90
9125;DHT22;4597;48.730;9.114;2022-11-02T18:22:44;10.50;99.90
9125;DHT22;4597;48.730;9.114;2022-11-02T18:25:12;10.50;99.90
9125;DHT22;4597;48.730;9.114;2022-11-02T18:27:38;10.50;99.90
9125;DHT22;4597;48.730;9.114;2022-11-02T18:30:06;10.50;99.90
9125;DHT22;4597;48.730;9.114;2022-11-02T18:32:35;10.50;99.90
9125;DHT22;4597;48.730;9.114;2022-11-02T18:35:01;10.50;99.90
9125;DHT22;4597;48.730;9.114;2022-11-02T18:37:26;10.50;99.90
9125;DHT22;4597;48.730;9.114;2022-11-02T18:39:52;10.50;99.90
9125;DHT22;4597;48.730;9.114;2022-11-02T18:42:18;10.30;99.90
9125;DHT22;4597;48.730;9.114;2022-11-02T18:44:44;10.20;99.90
9125;DHT22;4597;48.730;9.114;2022-11-02T18:47:09;10.20;99.90
9125;DHT22;4597;48.730;9.114;2022-11-02T18:49:35;10.20;99.90
9125;DHT22;4597;48.730;9.114;2022-11-02T18:52:00;10.20;99.90
9125;DHT22;4597;48.730;9.114;2022-11-02T18:54:26;10.10;99.90
9125;DHT22;4597;48.730;9.114;2022-11-02T18:56:51;10.10;99.90
9125;DHT22;4597;48.730;9.114;2022-11-02T18:59:17;10.10;99.90
9125;DHT22;4597;48.730;9.114;2022-11-02T19:01:42;10.00;99.90
9125;DHT22;4597;48.730;9.114;2022-11-02T19:04:09;10.00;99.90
9125;DHT22;4597;48.730;9.114;2022-11-02T19:06:35;9.90;99.90